Time;durP1;ratioP1;P1;durP2;ratioP2;P2;SDS_P1;SDS_P2;PMS_P1;PMS_P2;Temp;Humidity;BMP_temperature;BMP_pressure;BME280_temperature;BME280_humidity;BME280_pressure;Samples;Min_cycle;Max_cycle;Signal;HPM_P1;HPM_P2
2022/06/13 04:48:06;;;;;;;6.75;3.55;;;;;;;22.36;66.11;99706.72;1727934;82;21099;-48
2022/06/13 04:50:39;;;;;;;4.33;3.10;;;;;;;22.61;63.91;99708.80;1725546;81;21611;-39
2022/06/13 04:53:12;;;;;;;6.85;3.50;;;;;;;22.74;63.63;99707.16;1709782;82;21579;-39
2022/06/13 04:55:43;;;;;;;4.15;3.05;;;;;;;22.88;63.74;99707.69;1720677;82;21068;-48
2022/06/13 04:58:37;;;;;;;3.60;3.30;;;;;;;23.04;63.27;99705.81;1724927;82;21016;-49
2022/06/13 05:01:29;;;;;;;8.58;3.52;;;;;;;23.18;62.58;99707.16;1718063;83;21078;-50
2022/06/13 05:04:03;;;;;;;4.55;3.70;;;;;;;23.34;61.59;99707.93;1719314;81;21067;-40
2022/06/13 05:06:50;;;;;;;3.83;3.42;;;;;;;23.47;60.75;99708.02;1722650;82;21155;-49
2022/06/13 05:09:33;;;;;;;5.62;3.55;;;;;;;23.55;60.54;99703.08;1699654;83;21092;-49
2022/06/13 05:12:22;;;;;;;3.80;3.08;;;;;;;23.63;60.06;99705.28;1724493;82;21210;-49
2022/06/13 05:15:02;;;;;;;4.78;3.30;;;;;;;23.71;60.21;99707.45;1703498;82;21112;-49
2022/06/13 05:18:09;;;;;;;7.78;3.35;;;;;;;23.79;59.24;99702.03;1719258;82;21677;-48
2022/06/13 05:21:25;;;;;;;4.28;3.90;;;;;;;23.86;59.23;99704.67;1690707;81;21587;-50
2022/06/13 05:24:42;;;;;;;7.37;3.42;;;;;;;23.98;59.49;99707.52;1724129;81;21313;-40
2022/06/13 05:28:03;;;;;;;7.78;3.90;;;;;;;24.09;58.85;99709.88;1713209;81;21147;-40
2022/06/13 05:30:41;;;;;;;8.35;3.85;;;;;;;24.19;58.35;99708.80;1717850;81;21066;-41
2022/06/13 05:33:13;;;;;;;6.47;3.67;;;;;;;24.36;56.93;99709.92;1681804;82;21586;-50
2022/06/13 05:35:53;;;;;;;7.60;3.55;;;;;;;24.36;56.93;99709.92;1717707;81;21121;-42
2022/06/13 05:41:44;;;;;;;6.95;3.70;;;;;;;24.49;55.81;99717.98;1645487;85;21578;-41
2022/06/13 05:44:16;;;;;;;3.77;3.27;;;;;;;24.55;55.00;99715.38;1649574;84;21142;-43
2022/06/13 05:47:03;;;;;;;3.60;3.30;;;;;;;24.62;53.94;99710.84;1659026;84;21001;-41
2022/06/13 05:54:01;;;;;;;6.00;3.67;;;;;;;24.73;53.61;99712.80;1590413;88;22024;-41
2022/06/13 06:00:44;;;;;;;5.72;3.33;;;;;;;24.98;52.57;99705.28;1588377;88;21142;-50
2022/06/13 06:06:43;;;;;;;7.40;3.25;;;;;;;25.16;52.21;99696.49;1587460;85;21302;-47
2022/06/13 06:09:14;;;;;;;3.77;2.50;;;;;;;25.30;50.29;99698.22;1623867;85;21672;-41
2022/06/13 06:11:47;;;;;;;4.78;3.10;;;;;;;25.43;50.65;99703.08;1614011;86;21056;-49
2022/06/13 06:14:54;;;;;;;6.45;3.12;;;;;;;25.50;48.71;99701.67;1631483;86;21116;-44
2022/06/13 06:21:31;;;;;;;7.75;3.08;;;;;;;25.59;49.99;99699.69;1629687;86;21116;-50
2022/06/13 06:24:12;;;;;;;3.95;2.67;;;;;;;25.77;49.56;99698.88;1606720;86;21167;-40
2022/06/13 06:30:55;;;;;;;;;;;;;;;25.97;47.45;99694.25;1605300;88;21143;-50
2022/06/13 06:33:25;;;;;;;6.50;3.40;;;;;;;25.99;47.93;99701.71;1591769;89;20152;-41
2022/06/13 06:36:15;;;;;;;4.40;2.95;;;;;;;25.99;47.85;99699.03;1575310;89;21122;-42
2022/06/13 06:38:51;;;;;;;8.35;3.60;;;;;;;26.00;47.86;99703.91;1572662;89;21409;-46
2022/06/13 06:41:32;;;;;;;4.90;2.98;;;;;;;26.02;48.31;99698.42;1539615;90;21655;-40
2022/06/13 06:48:38;;;;;;;6.03;3.60;;;;;;;26.09;47.82;99697.88;1587040;89;21108;-50
2022/06/13 06:51:33;;;;;;;4.12;3.70;;;;;;;26.16;47.63;99699.62;1617543;86;21103;-48
2022/06/13 07:00:59;;;;;;;4.17;2.80;;;;;;;26.32;47.60;99699.31;1765830;79;21013;-49
2022/06/13 07:03:27;;;;;;;4.42;2.67;;;;;;;26.44;45.67;99699.77;1768545;79;21011;-49
2022/06/13 07:10:02;;;;;;;3.65;2.92;;;;;;;26.54;44.83;99706.16;1761248;79;21154;-42
2022/06/13 07:12:46;;;;;;;;;;;;;;;26.60;45.02;99707.03;1779770;79;21059;-42
2022/06/13 07:15:27;;;;;;;4.60;2.17;;;;;;;26.64;43.71;99707.18;1738529;79;20180;-42
2022/06/13 07:17:56;;;;;;;2.35;2.12;;;;;;;26.68;40.62;99705.98;1718651;80;21817;-49
2022/06/13 07:23:42;;;;;;;2.35;1.85;;;;;;;26.70;40.22;99708.55;1757907;79;21023;-49
2022/06/13 07:26:13;;;;;;;2.90;2.10;;;;;;;26.72;40.49;99711.47;1651652;83;21012;-42
2022/06/13 07:28:42;;;;;;;4.42;2.12;;;;;;;26.80;40.80;99712.24;1644232;85;21650;-49
2022/06/13 07:31:15;;;;;;;3.67;1.72;;;;;;;26.90;41.70;99717.25;1657919;86;21060;-50
2022/06/13 07:33:43;;;;;;;3.00;2.30;;;;;;;27.00;39.39;99711.55;1653934;85;21129;-48
2022/06/13 07:36:11;;;;;;;2.37;1.90;;;;;;;27.07;40.39;99710.61;1656358;85;21370;-49
2022/06/13 07:38:42;;;;;;;2.62;1.87;;;;;;;27.12;38.89;99719.66;1637226;86;21146;-41
2022/06/13 07:41:16;;;;;;;3.67;2.08;;;;;;;27.17;39.32;99716.13;1657351;85;21133;-43
2022/06/13 07:43:44;;;;;;;4.58;2.17;;;;;;;27.26;40.43;99720.80;1653709;85;21395;-43
2022/06/13 07:46:12;;;;;;;2.02;1.90;;;;;;;27.37;39.84;99718.13;1642112;86;20996;-41
2022/06/13 07:48:51;;;;;;;3.47;2.02;;;;;;;27.47;40.41;99714.20;1655027;82;21031;31
2022/06/13 07:51:21;;;;;;;3.30;2.15;;;;;;;27.52;39.81;99716.05;1568537;88;21058;-49
2022/06/13 07:53:50;;;;;;;2.50;2.12;;;;;;;27.61;39.22;99713.13;1562017;90;21072;-50
2022/06/13 07:56:23;;;;;;;3.55;2.47;;;;;;;27.69;39.95;99715.59;1617566;88;21038;-44
2022/06/13 07:58:54;;;;;;;6.87;2.00;;;;;;;27.78;40.22;99715.35;1609764;87;21651;-41
2022/06/13 08:01:24;;;;;;;5.75;2.30;;;;;;;27.88;39.64;99710.92;1573804;88;21059;-42
2022/06/13 08:03:52;;;;;;;1.60;1.50;;;;;;;27.96;38.54;99708.48;1597580;87;21180;-43
2022/06/13 08:06:20;;;;;;;4.12;2.08;;;;;;;28.01;38.57;99703.59;1576210;88;21048;-51
2022/06/13 08:08:48;;;;;;;2.95;1.87;;;;;;;28.10;38.37;99711.37;1577693;88;21139;-43
2022/06/13 08:11:18;;;;;;;3.70;1.80;;;;;;;28.15;37.70;99706.48;1606277;88;21027;-50
2022/06/13 08:13:46;;;;;;;2.15;1.95;;;;;;;28.22;37.86;99713.05;1599421;88;21126;-40
2022/06/13 08:16:15;;;;;;;3.37;1.90;;;;;;;28.27;37.40;99709.49;1600525;88;21564;-41
2022/06/13 08:18:42;;;;;;;2.67;2.17;;;;;;;28.22;37.46;99713.55;1578216;88;21143;-41
2022/06/13 08:21:11;;;;;;;7.95;1.70;;;;;;;28.21;37.58;99709.16;1550330;90;21095;-48
2022/06/13 08:23:39;;;;;;;4.67;1.70;;;;;;;28.27;37.11;99712.19;1595611;87;21037;-48
2022/06/13 08:26:06;;;;;;;2.45;1.75;;;;;;;28.31;35.86;99713.65;1600816;88;21039;-41
2022/06/13 08:28:35;;;;;;;2.83;1.90;;;;;;;28.28;36.47;99719.76;1572281;89;21056;-49
2022/06/13 08:31:12;;;;;;;2.17;1.70;;;;;;;28.25;37.18;99716.00;1598171;88;21664;-41
2022/06/13 08:33:40;;;;;;;1.80;1.50;;;;;;;28.26;37.65;99716.36;1588302;88;21048;-50
2022/06/13 08:36:08;;;;;;;4.75;1.62;;;;;;;28.32;37.86;99720.77;1588559;89;21628;-49
2022/06/13 08:38:35;;;;;;;2.25;1.90;;;;;;;28.41;37.70;99708.37;1600154;87;21097;-48
2022/06/13 08:41:32;;;;;;;3.00;1.75;;;;;;;28.47;37.93;99714.61;1587272;88;21322;-41
2022/06/13 08:44:34;;;;;;;3.60;1.80;;;;;;;28.50;37.13;99717.03;1586175;88;21663;-41
2022/06/13 08:47:28;;;;;;;3.98;1.77;;;;;;;28.49;36.22;99713.13;1566770;90;21570;-41
2022/06/13 08:50:03;;;;;;;3.85;1.98;;;;;;;28.45;34.92;99715.70;1548773;90;21143;-41
2022/06/13 08:52:55;;;;;;;2.77;1.82;;;;;;;28.34;36.41;99712.06;1512228;93;21049;-50
2022/06/13 08:55:33;;;;;;;3.37;1.50;;;;;;;28.45;36.98;99714.36;1500374;94;21112;-42
2022/06/13 08:58:31;;;;;;;1.98;1.50;;;;;;;28.59;36.06;99710.89;1539410;91;21034;-50
2022/06/13 09:01:08;;;;;;;1.85;1.67;;;;;;;28.69;36.70;99714.98;1544613;91;21134;-50
2022/06/13 09:04:17;;;;;;;3.27;1.57;;;;;;;28.74;35.81;99705.19;1541781;90;21078;-41
2022/06/13 09:07:04;;;;;;;2.87;1.45;;;;;;;28.76;35.33;99712.63;1544902;91;21075;-43
2022/06/13 09:09:51;;;;;;;4.85;1.80;;;;;;;28.74;35.50;99707.38;1546185;91;21141;-50
2022/06/13 09:12:42;;;;;;;3.77;1.62;;;;;;;28.69;35.56;99712.30;1547679;91;21068;-49
2022/06/13 09:15:18;;;;;;;5.08;1.75;;;;;;;28.68;35.18;99713.28;1546818;91;21201;-48
2022/06/13 09:18:40;;;;;;;1.80;1.62;;;;;;;28.74;34.84;99714.11;1545378;91;21076;-41
2022/06/13 09:21:41;;;;;;;1.42;1.32;;;;;;;28.76;35.01;99710.81;1545172;91;21564;-41
2022/06/13 09:24:36;;;;;;;3.40;1.90;;;;;;;28.82;34.97;99710.79;1547805;90;21105;-40
2022/06/13 09:27:09;;;;;;;2.22;1.60;;;;;;;28.93;34.13;99715.27;1550566;90;21762;-49
2022/06/13 09:29:55;;;;;;;3.20;1.22;;;;;;;28.99;34.65;99709.35;1637231;84;21097;-42
2022/06/13 09:32:32;;;;;;;3.27;1.60;;;;;;;29.05;34.84;99718.25;1652190;85;21055;-42
2022/06/13 09:35:20;;;;;;;2.40;1.60;;;;;;;29.12;34.47;99715.41;1641796;85;21092;-50
2022/06/13 09:37:56;;;;;;;2.83;1.60;;;;;;;29.19;34.49;99710.34;1653545;85;21095;-49
2022/06/13 09:44:47;;;;;;;5.20;2.22;;;;;;;29.36;33.83;99712.42;1617082;87;21094;-48
2022/06/13 09:51:26;;;;;;;2.08;1.52;;;;;;;29.26;33.83;99712.36;1556803;90;21854;-49
2022/06/13 09:54:19;;;;;;;2.05;1.62;;;;;;;29.32;32.92;99711.83;1545062;91;21080;-48
2022/06/13 09:57:01;;;;;;;2.02;1.57;;;;;;;29.33;33.44;99702.75;1527486;92;21635;-42
2022/06/13 10:00:08;;;;;;;3.27;1.52;;;;;;;29.39;33.65;99694.13;1535887;93;21080;-41
2022/06/13 10:02:59;;;;;;;1.72;1.62;;;;;;;29.46;33.82;99701.70;1518363;93;21076;-49
2022/06/13 10:05:56;;;;;;;2.27;1.42;;;;;;;29.47;33.84;99693.48;1548401;91;21565;-43
2022/06/13 10:08:38;;;;;;;2.67;1.40;;;;;;;29.52;34.06;99687.23;1562938;91;21588;-42
2022/06/13 10:19:37;;;;;;;1.72;1.62;;;;;;;29.59;33.69;99689.73;1527425;92;21107;-42
